createdAt,value
2017-10-16T00:02:26.107Z,99.90
2017-10-16T00:04:54.387Z,99.90
2017-10-16T00:07:22.674Z,99.90
2017-10-16T00:09:50.923Z,99.90
2017-10-16T00:12:19.192Z,99.90
2017-10-16T00:14:47.500Z,99.90
2017-10-16T00:17:15.774Z,99.90
2017-10-16T00:19:44.027Z,99.90
2017-10-16T00:22:12.378Z,99.90
2017-10-16T00:24:40.639Z,99.90
2017-10-16T00:27:09.667Z,99.90
2017-10-16T00:29:37.971Z,99.90
2017-10-16T00:32:06.202Z,99.90
2017-10-16T00:34:34.571Z,99.90
2017-10-16T00:37:03.649Z,99.90
2017-10-16T00:39:32.696Z,99.90
2017-10-16T00:42:00.957Z,99.90
2017-10-16T00:44:29.289Z,99.90
2017-10-16T00:46:57.567Z,99.90
2017-10-16T00:49:25.879Z,99.90
2017-10-16T00:51:54.196Z,99.90
2017-10-16T00:54:22.438Z,99.90
2017-10-16T00:56:50.699Z,99.90
2017-10-16T00:59:19.092Z,99.90
2017-10-16T01:01:47.344Z,99.90
2017-10-16T01:04:15.607Z,99.90
2017-10-16T01:06:44.663Z,99.90
2017-10-16T01:09:12.909Z,99.90
2017-10-16T01:11:41.182Z,99.90
2017-10-16T01:14:09.491Z,99.90
2017-10-16T01:16:37.746Z,99.90
2017-10-16T01:19:05.986Z,99.90
2017-10-16T01:21:35.032Z,99.90
2017-10-16T01:24:03.280Z,99.90
2017-10-16T01:26:31.524Z,99.90
2017-10-16T01:29:00.577Z,99.90
2017-10-16T01:31:28.858Z,99.90
2017-10-16T01:33:57.103Z,99.90
2017-10-16T01:36:25.394Z,99.90
2017-10-16T01:38:53.642Z,99.90
2017-10-16T01:41:21.909Z,99.90
2017-10-16T01:43:50.960Z,99.90
2017-10-16T01:46:19.194Z,99.90
2017-10-16T01:48:47.457Z,99.90
2017-10-16T01:51:15.745Z,99.90
2017-10-16T01:53:43.996Z,99.90
2017-10-16T01:56:13.009Z,99.90
2017-10-16T01:58:41.340Z,99.90
2017-10-16T02:01:09.591Z,99.90
2017-10-16T02:03:37.844Z,99.90
2017-10-16T02:06:06.182Z,99.90
2017-10-16T02:08:34.449Z,99.90
2017-10-16T02:11:02.691Z,99.90
2017-10-16T02:13:30.961Z,99.90
2017-10-16T02:15:59.195Z,99.90
2017-10-16T02:18:28.194Z,99.90
2017-10-16T02:20:56.489Z,99.90
2017-10-16T02:23:24.733Z,99.90
2017-10-16T02:25:53.820Z,99.90
2017-10-16T02:28:22.104Z,99.90
2017-10-16T02:30:51.118Z,99.90
2017-10-16T02:33:19.368Z,99.90
2017-10-16T02:35:48.439Z,99.90
2017-10-16T02:38:16.985Z,99.90
2017-10-16T02:40:45.282Z,99.90
2017-10-16T02:43:13.568Z,99.90
2017-10-16T02:45:41.967Z,99.90
2017-10-16T02:48:10.242Z,99.90
2017-10-16T02:50:38.525Z,99.90
2017-10-16T02:53:06.784Z,99.90
2017-10-16T02:55:35.040Z,99.90
2017-10-16T02:58:03.350Z,99.90
2017-10-16T03:00:31.620Z,99.90
2017-10-16T03:02:59.869Z,99.90
2017-10-16T03:05:28.156Z,99.90
2017-10-16T03:07:56.445Z,99.90
2017-10-16T03:10:24.701Z,99.90
2017-10-16T03:12:53.017Z,99.90
2017-10-16T03:15:22.039Z,99.90
2017-10-16T03:17:50.375Z,99.90
2017-10-16T03:20:18.663Z,99.90
2017-10-16T03:22:47.691Z,99.90
2017-10-16T03:25:15.923Z,99.90
2017-10-16T03:27:44.214Z,99.90
2017-10-16T03:30:13.232Z,99.90
2017-10-16T03:32:41.477Z,99.90
2017-10-16T03:35:10.545Z,99.90
2017-10-16T03:37:38.847Z,99.90
2017-10-16T03:40:07.925Z,99.90
2017-10-16T03:42:36.239Z,99.90
2017-10-16T03:45:05.247Z,99.90
2017-10-16T03:47:33.537Z,99.90
2017-10-16T03:50:01.844Z,99.90
2017-10-16T03:52:30.120Z,99.90
2017-10-16T03:54:58.421Z,99.90
2017-10-16T03:57:26.749Z,99.90
2017-10-16T03:59:55.010Z,99.90
2017-10-16T04:02:23.308Z,99.90
2017-10-16T04:04:51.621Z,99.90
2017-10-16T04:07:20.656Z,99.90
2017-10-16T04:09:48.886Z,99.90
2017-10-16T04:12:17.934Z,99.90
2017-10-16T04:14:46.219Z,99.90
2017-10-16T04:17:14.524Z,99.90
2017-10-16T04:19:43.625Z,99.90
2017-10-16T04:22:12.680Z,99.90
2017-10-16T04:24:40.938Z,99.90
2017-10-16T04:27:09.274Z,99.90
2017-10-16T04:29:37.557Z,99.90
2017-10-16T04:32:05.907Z,99.90
2017-10-16T04:34:34.212Z,99.90
2017-10-16T04:37:02.465Z,99.90
2017-10-16T04:39:30.770Z,99.90
2017-10-16T04:41:59.322Z,99.90
2017-10-16T04:44:28.388Z,99.90
2017-10-16T04:46:56.668Z,99.90
2017-10-16T04:49:24.939Z,99.90
2017-10-16T04:51:53.200Z,99.90
2017-10-16T04:54:21.493Z,99.90
2017-10-16T04:56:49.810Z,99.90
2017-10-16T04:59:18.874Z,99.90
2017-10-16T05:01:47.173Z,99.90
2017-10-16T05:04:15.518Z,99.90
2017-10-16T05:06:43.798Z,99.90
2017-10-16T05:09:12.067Z,99.90
2017-10-16T05:11:40.384Z,99.90
2017-10-16T05:14:09.450Z,99.90
2017-10-16T05:16:37.725Z,99.90
2017-10-16T05:19:06.026Z,99.90
2017-10-16T05:21:35.056Z,99.90
2017-10-16T05:24:03.307Z,99.90
2017-10-16T05:26:31.633Z,99.90
2017-10-16T05:28:59.921Z,99.90
2017-10-16T05:31:28.677Z,99.90
2017-10-16T05:33:57.052Z,99.90
2017-10-16T05:36:25.326Z,99.90
2017-10-16T05:38:53.585Z,99.90
2017-10-16T05:41:21.889Z,99.90
2017-10-16T05:43:50.113Z,99.90
2017-10-16T05:46:19.158Z,99.90
2017-10-16T05:48:47.449Z,99.90
2017-10-16T05:51:15.729Z,99.90
2017-10-16T05:53:44.020Z,99.90
2017-10-16T05:56:12.324Z,99.90
2017-10-16T05:58:40.574Z,99.90
2017-10-16T06:01:08.833Z,99.90
2017-10-16T06:03:37.130Z,99.90
2017-10-16T06:06:05.410Z,99.90
2017-10-16T06:08:33.688Z,99.90
2017-10-16T06:11:02.051Z,99.90
2017-10-16T06:13:30.279Z,99.90
2017-10-16T06:15:58.528Z,99.90
2017-10-16T06:18:27.647Z,99.90
2017-10-16T06:20:55.982Z,99.90
2017-10-16T06:23:24.244Z,99.90
2017-10-16T06:25:52.579Z,99.90
2017-10-16T06:28:20.847Z,99.90
2017-10-16T06:30:49.363Z,99.90
2017-10-16T06:33:17.663Z,99.90
2017-10-16T06:35:45.908Z,99.90
2017-10-16T06:38:14.238Z,99.90
2017-10-16T06:40:42.533Z,99.90
2017-10-16T06:43:10.844Z,99.90
2017-10-16T06:45:39.146Z,99.90
2017-10-16T06:48:07.494Z,99.90
2017-10-16T06:50:35.772Z,99.90
2017-10-16T06:53:04.026Z,99.90
2017-10-16T06:55:32.439Z,99.90
2017-10-16T06:58:00.694Z,99.90
2017-10-16T07:00:28.941Z,99.90
2017-10-16T07:02:57.271Z,99.90
2017-10-16T07:05:27.468Z,99.90
2017-10-16T07:07:55.797Z,99.90
2017-10-16T07:10:24.833Z,99.90
2017-10-16T07:12:53.867Z,99.90
2017-10-16T07:15:22.226Z,99.90
2017-10-16T07:17:50.510Z,99.90
2017-10-16T07:20:18.746Z,99.90
2017-10-16T07:22:47.696Z,99.90
2017-10-16T07:25:16.778Z,99.90
2017-10-16T07:27:45.056Z,99.90
2017-10-16T07:30:13.420Z,99.90
2017-10-16T07:32:41.700Z,99.90
2017-10-16T07:35:10.665Z,99.90
2017-10-16T07:37:39.010Z,99.90
2017-10-16T07:40:07.251Z,99.90
2017-10-16T07:42:35.491Z,99.90
2017-10-16T07:45:04.561Z,99.90
2017-10-16T07:47:32.835Z,99.90
2017-10-16T07:50:02.568Z,99.90
2017-10-16T07:52:30.898Z,99.90
2017-10-16T07:54:59.963Z,99.90
2017-10-16T07:57:28.214Z,99.90
2017-10-16T07:59:57.467Z,99.90
2017-10-16T08:02:26.493Z,99.90
2017-10-16T08:04:54.760Z,99.90
2017-10-16T08:07:23.090Z,99.90
2017-10-16T08:09:51.356Z,99.90
2017-10-16T08:12:20.395Z,99.90
2017-10-16T08:14:48.735Z,99.90
2017-10-16T08:17:17.007Z,99.90
2017-10-16T08:19:45.272Z,99.90
2017-10-16T08:22:13.583Z,99.90
2017-10-16T08:24:41.883Z,99.90
2017-10-16T08:27:10.150Z,99.90
2017-10-16T08:29:38.434Z,99.90
2017-10-16T08:32:06.706Z,99.90
2017-10-16T08:34:35.795Z,99.90
2017-10-16T08:37:04.811Z,99.90
2017-10-16T08:39:33.077Z,99.90
2017-10-16T08:42:01.381Z,99.90
2017-10-16T08:44:29.654Z,99.90
2017-10-16T08:46:58.801Z,99.90
2017-10-16T08:49:27.820Z,99.90
2017-10-16T08:51:57.083Z,99.90
2017-10-16T08:54:25.362Z,99.90
2017-10-16T08:56:54.413Z,99.90
2017-10-16T08:59:22.671Z,99.90
2017-10-16T09:01:51.046Z,99.90
2017-10-16T09:04:19.308Z,99.90
2017-10-16T09:06:47.554Z,99.90
2017-10-16T09:09:15.854Z,99.90
2017-10-16T09:11:45.660Z,99.90
2017-10-16T09:14:13.963Z,99.90
2017-10-16T09:16:42.190Z,99.90
2017-10-16T09:19:10.426Z,99.90
2017-10-16T09:21:38.722Z,99.90
2017-10-16T09:24:07.623Z,99.90
2017-10-16T09:26:35.871Z,99.90
2017-10-16T09:29:04.188Z,99.90
2017-10-16T09:31:32.514Z,99.90
2017-10-16T09:34:00.925Z,99.90
2017-10-16T09:36:29.401Z,99.90
2017-10-16T09:38:57.662Z,99.90
2017-10-16T09:41:25.880Z,99.90
2017-10-16T09:43:55.174Z,99.90
2017-10-16T09:46:23.451Z,99.90
2017-10-16T09:48:52.439Z,99.90
2017-10-16T09:51:20.788Z,99.90
2017-10-16T09:53:49.060Z,99.90
2017-10-16T09:56:17.296Z,99.90
2017-10-16T09:58:46.402Z,99.90
2017-10-16T10:01:14.667Z,99.90
2017-10-16T10:03:42.950Z,99.90
2017-10-16T10:06:11.347Z,99.90
2017-10-16T10:08:39.614Z,99.90
2017-10-16T10:11:07.869Z,99.90
2017-10-16T10:13:36.164Z,99.90
2017-10-16T10:16:04.467Z,99.90
2017-10-16T10:18:32.778Z,99.90
2017-10-16T10:21:01.851Z,99.90
2017-10-16T10:23:30.102Z,99.90
2017-10-16T10:25:58.372Z,99.90
2017-10-16T10:28:26.636Z,99.90
2017-10-16T10:30:54.913Z,99.90
2017-10-16T10:33:23.152Z,99.90
2017-10-16T10:35:52.234Z,99.90
2017-10-16T10:38:21.309Z,99.90
2017-10-16T10:40:49.572Z,99.90
2017-10-16T10:43:17.902Z,99.90
2017-10-16T10:45:46.152Z,99.90
2017-10-16T10:48:14.429Z,99.90
2017-10-16T10:50:42.842Z,99.90
2017-10-16T10:53:11.837Z,99.90
2017-10-16T10:55:40.850Z,99.90
2017-10-16T10:58:09.165Z,99.90
2017-10-16T11:00:37.431Z,99.90
2017-10-16T11:03:05.690Z,99.90
2017-10-16T11:05:34.047Z,99.90
2017-10-16T11:08:02.287Z,99.90
2017-10-16T11:10:30.532Z,99.90
2017-10-16T11:12:58.839Z,99.90
2017-10-16T11:15:27.864Z,99.90
2017-10-16T11:17:56.154Z,99.90
2017-10-16T11:20:24.596Z,99.90
2017-10-16T11:22:53.633Z,99.90
2017-10-16T11:25:21.896Z,99.90
2017-10-16T11:27:50.176Z,99.90
2017-10-16T11:30:18.413Z,99.90
2017-10-16T11:32:47.444Z,99.90
2017-10-16T11:35:15.714Z,99.90
2017-10-16T11:37:44.192Z,99.90
2017-10-16T11:40:13.098Z,99.90
2017-10-16T11:42:41.474Z,99.90
2017-10-16T11:45:09.719Z,99.90
2017-10-16T11:47:38.030Z,99.40
2017-10-16T11:50:06.738Z,98.90
2017-10-16T11:52:35.001Z,99.60
2017-10-16T11:55:03.252Z,99.70
2017-10-16T11:57:31.555Z,99.30
2017-10-16T11:59:59.804Z,99.90
2017-10-16T12:02:28.075Z,98.70
2017-10-16T12:04:56.378Z,99.40
2017-10-16T12:07:24.637Z,99.90
2017-10-16T12:09:52.925Z,99.80
2017-10-16T12:12:22.026Z,97.90
2017-10-16T12:14:50.385Z,97.90
2017-10-16T12:17:18.637Z,97.80
2017-10-16T12:19:46.915Z,98.50
2017-10-16T12:22:15.247Z,97.90
2017-10-16T12:24:43.513Z,98.00
2017-10-16T12:27:11.765Z,97.30
2017-10-16T12:29:40.096Z,96.70
2017-10-16T12:32:09.143Z,95.80
2017-10-16T12:34:37.369Z,95.70
2017-10-16T12:37:05.684Z,95.40
2017-10-16T12:39:33.909Z,96.50
2017-10-16T12:42:02.179Z,95.40
2017-10-16T12:44:30.467Z,94.60
2017-10-16T12:46:58.755Z,94.60
2017-10-16T12:49:27.805Z,95.10
2017-10-16T12:51:56.192Z,95.10
2017-10-16T12:54:24.454Z,94.90
2017-10-16T12:56:52.691Z,95.20
2017-10-16T12:59:21.009Z,96.40
2017-10-16T13:01:49.288Z,94.60
2017-10-16T13:04:17.578Z,94.00
2017-10-16T13:06:45.890Z,94.70
2017-10-16T13:09:14.170Z,94.10
2017-10-16T13:11:42.447Z,94.30
2017-10-16T13:14:10.759Z,94.40
2017-10-16T13:16:39.059Z,94.10
2017-10-16T13:19:07.318Z,94.50
2017-10-16T13:21:36.449Z,93.40
2017-10-16T13:24:05.437Z,93.20
2017-10-16T13:26:34.473Z,93.70
2017-10-16T13:29:02.786Z,93.70
2017-10-16T13:31:31.029Z,93.70
2017-10-16T13:33:59.417Z,93.60
2017-10-16T13:36:27.733Z,93.80
2017-10-16T13:38:56.855Z,93.10
2017-10-16T13:41:25.960Z,92.80
2017-10-16T13:43:54.210Z,92.80
2017-10-16T13:46:23.246Z,94.50
2017-10-16T13:48:51.590Z,94.50
2017-10-16T13:51:19.999Z,93.20
2017-10-16T13:53:49.093Z,92.50
2017-10-16T13:56:17.339Z,93.00
2017-10-16T13:58:46.519Z,92.80
2017-10-16T14:01:14.788Z,92.70
2017-10-16T14:03:43.814Z,92.00
2017-10-16T14:06:12.162Z,91.90
2017-10-16T14:08:40.427Z,91.70
2017-10-16T14:11:08.686Z,91.00
2017-10-16T14:13:37.057Z,91.30
2017-10-16T14:16:05.319Z,91.30
2017-10-16T14:18:35.627Z,91.60
2017-10-16T14:21:03.936Z,91.80
2017-10-16T14:23:32.185Z,92.70
2017-10-16T14:26:00.422Z,91.50
2017-10-16T14:28:29.560Z,92.00
2017-10-16T14:30:57.806Z,92.00
2017-10-16T14:33:26.827Z,91.80
2017-10-16T14:35:55.148Z,91.80
2017-10-16T14:38:23.834Z,91.00
2017-10-16T14:40:52.097Z,91.30
2017-10-16T14:43:20.486Z,91.30
2017-10-16T14:45:48.783Z,90.60
2017-10-16T14:48:19.085Z,91.10
2017-10-16T14:50:47.345Z,91.10
2017-10-16T14:53:15.599Z,90.40
2017-10-16T14:55:43.929Z,90.70
2017-10-16T14:58:12.191Z,90.40
2017-10-16T15:00:43.184Z,90.70
2017-10-16T15:03:11.555Z,90.40
2017-10-16T15:05:39.933Z,90.00
2017-10-16T15:08:08.193Z,90.40
2017-10-16T15:10:36.459Z,91.00
2017-10-16T15:13:05.536Z,91.70
2017-10-16T15:15:33.787Z,91.80
2017-10-16T15:18:02.097Z,91.20
2017-10-16T15:20:31.212Z,90.90
2017-10-16T15:22:59.474Z,90.90
2017-10-16T15:25:28.510Z,90.90
2017-10-16T15:27:56.794Z,90.90
2017-10-16T15:30:25.110Z,89.90
2017-10-16T15:32:53.483Z,90.00
2017-10-16T15:35:21.761Z,90.90
2017-10-16T15:37:50.815Z,91.60
2017-10-16T15:40:19.148Z,91.50
2017-10-16T15:42:48.172Z,91.70
2017-10-16T15:45:16.459Z,91.70
2017-10-16T15:47:44.807Z,91.90
2017-10-16T15:50:13.076Z,90.80
2017-10-16T15:52:41.346Z,91.20
2017-10-16T15:55:10.408Z,90.70
2017-10-16T15:57:38.700Z,90.80
2017-10-16T16:00:06.972Z,90.70
2017-10-16T16:02:35.303Z,90.50
2017-10-16T16:05:03.581Z,89.50
2017-10-16T16:07:31.889Z,91.00
2017-10-16T16:10:00.992Z,90.30
2017-10-16T16:12:29.338Z,90.30
2017-10-16T16:14:57.596Z,90.30
2017-10-16T16:17:25.860Z,90.50
2017-10-16T16:19:54.198Z,92.10
2017-10-16T16:22:22.612Z,91.70
2017-10-16T16:24:50.882Z,91.60
2017-10-16T16:27:19.215Z,90.80
2017-10-16T16:29:47.457Z,91.50
2017-10-16T16:32:15.810Z,91.20
2017-10-16T16:34:44.943Z,91.10
2017-10-16T16:37:13.233Z,91.10
2017-10-16T16:39:41.516Z,90.40
2017-10-16T16:42:09.867Z,92.00
2017-10-16T16:44:38.137Z,91.90
2017-10-16T16:47:06.383Z,91.10
2017-10-16T16:49:35.529Z,92.10
2017-10-16T16:52:03.797Z,92.10
2017-10-16T16:54:32.086Z,92.10
2017-10-16T16:57:00.401Z,92.20
2017-10-16T16:59:30.474Z,92.30
2017-10-16T17:01:58.923Z,92.30
2017-10-16T17:04:27.274Z,92.60
2017-10-16T17:06:56.287Z,92.60
2017-10-16T17:09:24.526Z,92.60
2017-10-16T17:11:52.811Z,92.70
2017-10-16T17:14:21.052Z,92.70
2017-10-16T17:16:49.499Z,92.70
2017-10-16T17:19:17.793Z,92.60
2017-10-16T17:21:48.027Z,93.50
2017-10-16T17:24:16.358Z,93.90
2017-10-16T17:26:45.527Z,94.40
2017-10-16T17:29:14.117Z,94.40
2017-10-16T17:31:42.422Z,94.90
2017-10-16T17:34:10.673Z,94.20
2017-10-16T17:36:39.014Z,94.30
2017-10-16T17:39:07.298Z,94.50
2017-10-16T17:41:36.524Z,94.30
2017-10-16T17:44:05.640Z,94.00
2017-10-16T17:46:34.664Z,94.10
2017-10-16T17:49:02.955Z,94.10
2017-10-16T17:51:31.368Z,94.70
2017-10-16T17:54:00.413Z,94.70
2017-10-16T17:56:28.716Z,94.70
2017-10-16T17:58:57.068Z,94.80
2017-10-16T18:01:25.356Z,95.00
2017-10-16T18:03:53.630Z,94.90
2017-10-16T18:06:21.989Z,95.30
2017-10-16T18:08:50.335Z,95.30
2017-10-16T18:11:19.412Z,95.80
2017-10-16T18:13:47.758Z,95.80
2017-10-16T18:16:16.017Z,95.80
2017-10-16T18:18:44.299Z,96.10
2017-10-16T18:21:12.652Z,96.00
2017-10-16T18:23:40.952Z,96.00
2017-10-16T18:26:09.297Z,95.70
2017-10-16T18:28:38.348Z,96.20
2017-10-16T18:31:06.611Z,96.20
2017-10-16T18:33:34.956Z,96.10
2017-10-16T18:36:03.247Z,96.20
2017-10-16T18:38:31.545Z,96.60
2017-10-16T18:40:59.913Z,97.30
2017-10-16T18:43:28.281Z,97.40
2017-10-16T18:45:56.577Z,96.90
2017-10-16T18:48:24.904Z,97.20
2017-10-16T18:50:54.106Z,97.00
2017-10-16T18:53:23.040Z,96.90
2017-10-16T18:55:52.281Z,97.10
2017-10-16T18:58:20.950Z,96.90
2017-10-16T19:00:50.341Z,98.30
2017-10-16T19:03:19.958Z,98.90
2017-10-16T19:05:49.148Z,99.90
2017-10-16T19:08:19.577Z,99.70
2017-10-16T19:10:47.890Z,99.70
2017-10-16T19:13:17.189Z,99.40
2017-10-16T19:15:45.583Z,99.40
2017-10-16T19:18:14.128Z,99.00
2017-10-16T19:20:42.438Z,99.10
2017-10-16T19:23:10.801Z,99.00
2017-10-16T19:25:39.534Z,98.40
2017-10-16T19:28:07.832Z,98.90
2017-10-16T19:30:36.147Z,98.60
2017-10-16T19:33:04.433Z,99.10
2017-10-16T19:35:32.751Z,99.20
2017-10-16T19:38:01.102Z,99.20
2017-10-16T19:40:30.097Z,98.60
2017-10-16T19:42:58.363Z,98.60
2017-10-16T19:45:26.723Z,99.50
2017-10-16T19:47:55.015Z,99.70
2017-10-16T19:50:23.300Z,99.70
2017-10-16T19:52:52.446Z,99.90
2017-10-16T19:55:21.511Z,99.90
2017-10-16T19:57:49.789Z,99.90
2017-10-16T20:00:18.101Z,99.90
2017-10-16T20:02:47.134Z,99.90
2017-10-16T20:05:15.431Z,99.90
2017-10-16T20:07:43.679Z,99.60
2017-10-16T20:10:12.044Z,99.90
2017-10-16T20:12:40.312Z,99.90
2017-10-16T20:15:08.582Z,99.90
2017-10-16T20:17:37.687Z,99.90
2017-10-16T20:20:06.193Z,99.90
2017-10-16T20:22:34.461Z,99.90
2017-10-16T20:25:02.880Z,99.90
2017-10-16T20:27:31.182Z,99.90
2017-10-16T20:30:00.196Z,99.90
2017-10-16T20:32:28.536Z,99.90
2017-10-16T20:34:57.102Z,99.90
2017-10-16T20:37:25.338Z,99.90
2017-10-16T20:39:53.709Z,99.90
2017-10-16T20:42:22.028Z,99.90
2017-10-16T20:44:50.295Z,99.90
2017-10-16T20:47:18.655Z,99.90
2017-10-16T20:49:47.575Z,99.90
2017-10-16T20:52:15.811Z,99.90
2017-10-16T20:54:44.186Z,99.90
2017-10-16T20:57:12.531Z,99.90
2017-10-16T20:59:40.856Z,99.90
2017-10-16T21:02:09.232Z,99.90
2017-10-16T21:04:37.506Z,99.90
2017-10-16T21:07:05.776Z,99.90
2017-10-16T21:09:34.102Z,99.90
2017-10-16T21:12:02.399Z,99.90
2017-10-16T21:14:31.416Z,99.90
2017-10-16T21:16:59.801Z,99.90
2017-10-16T21:19:28.063Z,99.90
2017-10-16T21:21:56.360Z,99.90
2017-10-16T21:24:24.695Z,99.90
2017-10-16T21:26:52.972Z,99.90
2017-10-16T21:29:22.005Z,99.90
2017-10-16T21:31:50.334Z,99.90
2017-10-16T21:34:18.608Z,99.90
2017-10-16T21:36:46.925Z,99.90
2017-10-16T21:39:15.202Z,99.90
2017-10-16T21:41:43.479Z,99.90
2017-10-16T21:44:11.811Z,99.90
2017-10-16T21:46:40.074Z,99.90
2017-10-16T21:49:08.320Z,99.90
2017-10-16T21:51:37.394Z,99.90
2017-10-16T21:54:05.741Z,99.90
2017-10-16T21:56:33.993Z,99.90
2017-10-16T21:59:02.271Z,99.90
2017-10-16T22:01:30.607Z,99.90
2017-10-16T22:03:58.842Z,99.90
2017-10-16T22:06:27.926Z,99.90
2017-10-16T22:08:56.260Z,99.90
2017-10-16T22:11:24.498Z,99.90
2017-10-16T22:13:52.753Z,99.90
2017-10-16T22:16:21.076Z,99.90
2017-10-16T22:18:49.353Z,99.90
2017-10-16T22:21:17.636Z,99.90
2017-10-16T22:23:45.988Z,99.90
2017-10-16T22:26:14.263Z,99.90
2017-10-16T22:28:42.518Z,99.90
2017-10-16T22:31:10.851Z,99.90
2017-10-16T22:33:39.902Z,99.90
2017-10-16T22:36:08.965Z,99.90
2017-10-16T22:38:37.356Z,99.90
2017-10-16T22:41:05.636Z,99.90
2017-10-16T22:43:34.057Z,99.90
2017-10-16T22:46:02.723Z,99.90
2017-10-16T22:48:42.227Z,99.90
2017-10-16T22:51:10.545Z,99.90
2017-10-16T22:53:38.812Z,99.90
2017-10-16T22:56:07.124Z,99.90
2017-10-16T22:58:35.795Z,99.90
2017-10-16T23:01:04.073Z,99.90
2017-10-16T23:03:32.336Z,99.90
2017-10-16T23:06:00.663Z,99.90
2017-10-16T23:08:28.940Z,99.90
2017-10-16T23:10:57.300Z,99.90
2017-10-16T23:13:25.590Z,99.90
2017-10-16T23:15:53.852Z,99.90
2017-10-16T23:18:22.173Z,99.90
2017-10-16T23:20:51.229Z,99.90
2017-10-16T23:23:19.518Z,99.90
2017-10-16T23:25:47.869Z,99.90
2017-10-16T23:28:16.195Z,99.90
2017-10-16T23:30:46.008Z,99.90
2017-10-16T23:33:14.418Z,99.90
2017-10-16T23:35:42.707Z,99.90
2017-10-16T23:38:10.935Z,99.90
2017-10-16T23:40:40.044Z,99.90
2017-10-16T23:43:08.349Z,99.90
2017-10-16T23:45:36.640Z,99.90
2017-10-16T23:48:04.974Z,99.90
2017-10-16T23:50:33.975Z,99.90
2017-10-16T23:53:02.261Z,99.90
2017-10-16T23:55:30.616Z,99.90
2017-10-16T23:57:58.893Z,99.90
